Pagina principale
METAR-TAF:

METAR-TAF

Aeroporti :

Aeroporto di Cefalonia

Cefalonia, Grecia

latitudine: 38-07N, longitudine: 020-30E, altezza: 19 m

Osservazione

Il bollettino è stato emesso 20 minuti fa, alle 13:50 UTC
Vento 9 kt da ovest
Temperature 27°C
Umidità 62%
Pressione 1016 hPa
Visibilità 10 km o più
nessuna nube inferiore a 1500 m e nessun cumulonembo

METAR: LGKF 271350Z 28009KT CAVOK 27/19 Q1016

Ora: 17:10 (14:10 UTC)

Previsione

Il bollettino è stato emesso 3 ore e 10 minuti fa, alle 11:00 UTC
Previsione valida dal 27 alle 12 UTC al 27 alle 21 UTC
Vento 12 kt da nord-ovest
Visibilità 10 km o più
Poco nuvoloso ad un'altezza di 1600 ft
Evoluzione graduale
dal 27 alle 18 UTC al 27 alle 20 UTC
Vento 5 kt da direzioni variabili

TAF: LGKF 271100Z 2712/2721 32012KT 9999 FEW016 BECMG 2718/2720 VRB05KT

Osservazioni e previsioni meteorologiche di più di 4000 aeroporti (messaggi METAR e TAF).

Le stazioni disponibili sono rappresentate dai dischi gialli e rossi sulla carta.

Puntare il mouse per vedere il nome della stazione.

Clicca sopra per visualizzare le osservazioni e previsioni meteorologiche.

Per cambiare la mappa : fare clic sui pulsanti verdi con una croce nera per ingrandire, il pulsante verde con un trattino per diminuire, o sulla freccia verde per le mappe adiacenti.


METAR-TAF: